Sam Holmes — WDH8629 — position and weather

sailwx.info

Track history (hours):
 
Tides and Currents Weather Stations Pressure Air Temp Water Temp Dewpoint Dewpoint Depression Visibility Wind Speed Wind Dir Waves Ship Positions

Sam Holmes

Owner: NYCL Acquisition LLC, Brooklyn, NY. More information available from US FCC via Universal Licensing System and Coast Guard Vessel Documentation Center.

Last reported at 2018-Feb-21 18:39 UTC. Time now 2018-Feb-22 09:18 UTC.
Position N 40°40' W 074°01'.

Type: Passenger vessel. MMSI: 367659970.

Date/timePositionNaut miles runAvg speedWind from/ knotsBaromVisibWave heightAir tempDewpointWater temp
2018-Feb-21 18:39N 40°40' W 074°01'1 6.9
2018-Feb-21 18:30N 40°39' W 074°01'611.5
2018-Feb-21 18:01N 40°45' W 073°58'612.7
2018-Feb-21 17:31N 40°39' W 074°02'612.7
2018-Feb-21 17:01N 40°45' W 073°58'612.6
2018-Feb-21 16:30N 40°39' W 074°02'612.3
2018-Feb-21 16:00N 40°45' W 073°58'613.0
2018-Feb-21 15:30N 40°39' W 074°02'612.9
2018-Feb-21 15:00N 40°45' W 073°58'612.8
2018-Feb-21 14:30N 40°39' W 074°02'612.5
2018-Feb-21 14:00N 40°45' W 073°58'612.8
2018-Feb-21 13:30N 40°39' W 074°02'612.6
2018-Feb-21 13:00N 40°45' W 073°58'612.7
2018-Feb-21 12:30N 40°39' W 074°02'612.8
2018-Feb-21 12:00N 40°45' W 073°58'612.8
2018-Feb-21 11:30N 40°39' W 074°02'612.7
2018-Feb-21 11:00N 40°45' W 073°58'612.7
2018-Feb-21 10:31N 40°39' W 074°02'2 3.2
2018-Feb-21 10:00N 40°40' W 074°01'0 0.0
2018-Feb-21 09:31N 40°40' W 074°01'0 0.0
2018-Feb-19 23:05N 40°40' W 074°01'0 0.0
2018-Feb-19 23:00N 40°40' W 074°01'2 3.8
2018-Feb-19 22:30N 40°42' W 074°01'1 2.6
2018-Feb-19 22:00N 40°44' W 074°01'2 3.1
2018-Feb-19 21:30N 40°42' W 074°00'3 7.0
2018-Feb-19 21:00N 40°46' W 074°00'4 7.0
2018-Feb-19 20:30N 40°42' W 073°60'3 5.7
2018-Feb-19 20:00N 40°45' W 074°01'4 8.2
2018-Feb-19 19:30N 40°41' W 074°03'1 3.0
2018-Feb-19 19:00N 40°42' W 074°01'4 7.1
2018-Feb-19 18:30N 40°46' W 074°00'4 7.0
2018-Feb-19 18:00N 40°42' W 073°60'3 5.5
2018-Feb-19 17:30N 40°45' W 074°01'4 7.5
2018-Feb-19 17:00N 40°41' W 074°03'1 3.0
2018-Feb-19 16:30N 40°42' W 074°01'2 3.4
2018-Feb-19 16:00N 40°44' W 074°01'2 3.7
2018-Feb-19 15:30N 40°42' W 074°00'3 6.5
2018-Feb-19 14:59N 40°46' W 074°00'2 4.4
2018-Feb-19 14:30N 40°44' W 074°01'3 6.9
2018-Feb-19 14:00N 40°40' W 074°01'0 0.0
2018-Feb-19 13:30N 40°40' W 074°01'0 0.0
2018-Feb-18 22:18N 40°40' W 074°01'2 6.0
2018-Feb-18 22:00N 40°42' W 074°00'0 0.7
2018-Feb-18 21:30N 40°42' W 074°01'2 3.1
2018-Feb-18 21:00N 40°43' W 074°01'1 2.8
2018-Feb-18 20:30N 40°42' W 074°00'0 0.2
2018-Feb-18 19:59N 40°42' W 074°00'1 2.7
2018-Feb-18 19:30N 40°43' W 074°02'1 2.5
2018-Feb-18 19:00N 40°42' W 074°00'0 0.2
2018-Feb-18 18:30N 40°42' W 074°00'1 2.4
2018-Feb-18 18:00N 40°43' W 074°02'1 2.4
2018-Feb-18 17:30N 40°42' W 074°00'0 0.6
2018-Feb-18 16:59N 40°42' W 074°00'1 2.6
2018-Feb-18 16:30N 40°43' W 074°01'1 2.4
2018-Feb-18 16:00N 40°42' W 074°00'2 0.1
2018-Feb-17 22:57N 40°40' W 074°01'2 3.4
2018-Feb-17 22:30N 40°42' W 074°01'3 6.4
2018-Feb-17 22:00N 40°45' W 074°01'3 5.3
2018-Feb-17 21:29N 40°42' W 074°00'3 7.4
2018-Feb-17 21:01N 40°46' W 074°00'4 8.9
2018-Feb-17 20:31N 40°42' W 074°02'2 3.4
2018-Feb-17 20:00N 40°43' W 074°01'1 1.6
2018-Feb-17 19:30N 40°43' W 074°02'1 2.7
2018-Feb-17 19:00N 40°42' W 074°00'4 6.9
2018-Feb-17 18:30N 40°46' W 074°00'4 7.2
2018-Feb-17 18:00N 40°42' W 073°60'2 4.9
2018-Feb-17 17:30N 40°45' W 074°01'4 7.0
2018-Feb-17 17:00N 40°41' W 074°03'2 3.0
2018-Feb-17 16:30N 40°42' W 074°01'2 3.7
2018-Feb-17 16:01N 40°44' W 074°01'2 3.8
2018-Feb-17 15:30N 40°42' W 074°00'3 7.0
2018-Feb-17 15:00N 40°46' W 074°00'0 0.4
2018-Feb-17 14:31N 40°46' W 074°00'510.9
2018-Feb-17 14:01N 40°40' W 074°01'0 0.0
2018-Feb-17 13:31N 40°40' W 074°01'0 0.0
2018-Feb-16 22:54N 40°40' W 074°01'2 4.0
2018-Feb-16 22:31N 40°42' W 074°01'2 4.8
2018-Feb-16 22:00N 40°44' W 074°01'2 4.2
2018-Feb-16 21:30N 40°42' W 074°00'3 4.9
2018-Feb-16 21:00N 40°45' W 074°01'3 7.0
2018-Feb-16 20:30N 40°42' W 074°02'1 2.2
2018-Feb-16 20:00N 40°42' W 074°01'1 2.5
2018-Feb-16 19:30N 40°43' W 074°01'2 3.2
2018-Feb-16 19:00N 40°42' W 074°00'3 6.4
2018-Feb-16 18:28N 40°46' W 074°00'4 7.7
2018-Feb-16 18:00N 40°42' W 073°60'3 5.8
2018-Feb-16 17:30N 40°45' W 074°01'4 7.7
2018-Feb-16 17:00N 40°41' W 074°02'2 3.3
2018-Feb-16 16:31N 40°43' W 074°01'1 1.1
2018-Feb-16 16:00N 40°43' W 074°01'1 2.8
2018-Feb-16 15:30N 40°42' W 074°00'3 6.8
2018-Feb-16 15:00N 40°46' W 074°00'0 0.0
2018-Feb-16 14:30N 40°46' W 074°00'5 0.4
2018-Feb-15 23:03N 40°40' W 074°01'0 0.0
2018-Feb-15 23:00N 40°40' W 074°01'2 4.1
2018-Feb-15 22:30N 40°42' W 074°00'3 6.9
2018-Feb-15 22:00N 40°46' W 074°00'4 7.1
2018-Feb-15 21:30N 40°42' W 073°60'2 4.9
2018-Feb-15 21:00N 40°44' W 074°01'3 6.6
2018-Feb-15 20:31N 40°41' W 074°02'1 2.8
2018-Feb-15 20:00N 40°42' W 074°01'2 4.2
2018-Feb-15 19:30N 40°44' W 074°01'2 4.3
2018-Feb-15 19:00N 40°42' W 074°00'3 6.9
2018-Feb-15 18:30N 40°46' W 074°00'4 7.2
2018-Feb-15 18:00N 40°42' W 073°60'3 5.0
2018-Feb-15 17:31N 40°45' W 074°01'3 6.2
2018-Feb-15 17:00N 40°42' W 074°02'1 2.2
2018-Feb-15 16:30N 40°42' W 074°01'3 6.2
2018-Feb-15 16:01N 40°45' W 074°01'3 6.1
2018-Feb-15 15:30N 40°42' W 074°00'3 6.7
2018-Feb-15 14:59N 40°46' W 074°00'0 0.2
2018-Feb-15 14:30N 40°46' W 074°00'510.9
2018-Feb-15 14:00N 40°40' W 074°01'0 0.0
2018-Feb-15 13:30N 40°40' W 074°01'0 0.0
2018-Feb-15 01:32N 40°40' W 074°01'0 0.0
2018-Feb-15 01:30N 40°40' W 074°01'5 9.2
2018-Feb-15 01:00N 40°45' W 073°58'612.8
2018-Feb-15 00:31N 40°39' W 074°02'612.5
2018-Feb-15 00:00N 40°45' W 073°58'612.6
2018-Feb-14 23:30N 40°39' W 074°02'612.6
2018-Feb-14 23:00N 40°45' W 073°58'612.9
2018-Feb-14 22:30N 40°39' W 074°02'612.6
2018-Feb-14 22:00N 40°45' W 073°58'612.7
2018-Feb-14 21:30N 40°39' W 074°02'612.6
2018-Feb-14 21:00N 40°45' W 073°58'612.8
2018-Feb-14 20:30N 40°39' W 074°02'612.6
2018-Feb-14 20:00N 40°45' W 073°58'612.7
2018-Feb-14 19:30N 40°39' W 074°02'612.4
2018-Feb-14 19:00N 40°45' W 073°58'612.8
2018-Feb-14 18:30N 40°39' W 074°02'2 0.1
2018-Feb-14 01:31N 40°40' W 074°01'0 0.0
2018-Feb-14 01:31N 40°40' W 074°01'5 9.4
2018-Feb-14 01:00N 40°45' W 073°58'612.7
2018-Feb-14 00:30N 40°39' W 074°02'612.4
2018-Feb-14 00:00N 40°45' W 073°58'613.0
2018-Feb-13 23:30N 40°39' W 074°02'612.6
2018-Feb-13 23:00N 40°45' W 073°58'612.7
2018-Feb-13 22:30N 40°39' W 074°02'612.4
2018-Feb-13 22:00N 40°45' W 073°58'612.9
2018-Feb-13 21:30N 40°39' W 074°02'612.6
2018-Feb-13 21:00N 40°45' W 073°58'612.7
2018-Feb-13 20:30N 40°39' W 074°02'612.7
2018-Feb-13 20:00N 40°45' W 073°58'612.6
2018-Feb-13 19:30N 40°39' W 074°02'612.8
2018-Feb-13 19:00N 40°45' W 073°58'612.7
2018-Feb-13 18:30N 40°39' W 074°02'612.7
2018-Feb-13 18:01N 40°45' W 073°58'612.7
2018-Feb-13 17:31N 40°39' W 074°02'612.5
2018-Feb-13 17:00N 40°45' W 073°58'612.9
2018-Feb-13 16:31N 40°39' W 074°02'612.7
2018-Feb-13 16:01N 40°45' W 073°58'612.7
2018-Feb-13 15:30N 40°39' W 074°02'612.4
2018-Feb-13 15:00N 40°45' W 073°58'612.5
2018-Feb-13 14:31N 40°39' W 074°02'612.1
2018-Feb-13 14:00N 40°45' W 073°58'612.6
2018-Feb-13 13:30N 40°39' W 074°02'612.8
2018-Feb-13 13:00N 40°45' W 073°58'612.6
2018-Feb-13 12:30N 40°39' W 074°02'612.5
2018-Feb-13 12:00N 40°45' W 073°58'612.9
2018-Feb-13 11:31N 40°39' W 074°02'1 2.8
2018-Feb-13 11:00N 40°40' W 074°01'0 0.0
2018-Feb-13 01:34N 40°40' W 074°01'0 0.0
2018-Feb-13 01:30N 40°40' W 074°01'5 9.5
2018-Feb-13 01:00N 40°45' W 073°58'612.6
2018-Feb-13 00:31N 40°39' W 074°02'612.3
2018-Feb-13 00:00N 40°45' W 073°58'613.1
2018-Feb-12 23:30N 40°39' W 074°02'612.6
2018-Feb-12 23:00N 40°45' W 073°58'613.2
2018-Feb-12 22:30N 40°39' W 074°02'612.7
2018-Feb-12 22:00N 40°45' W 073°58'612.7
2018-Feb-12 21:30N 40°39' W 074°02'612.7
2018-Feb-12 21:00N 40°45' W 073°58'613.1
2018-Feb-12 20:30N 40°39' W 074°02'612.7
2018-Feb-12 20:00N 40°45' W 073°58'612.6
2018-Feb-12 19:30N 40°39' W 074°02'612.6
2018-Feb-12 19:00N 40°45' W 073°58'612.1
2018-Feb-12 18:29N 40°39' W 074°02'2 3.5
2018-Feb-12 18:01N 40°40' W 074°01'0 0.0
2018-Feb-11 22:48N 40°40' W 074°01'2 7.0
2018-Feb-11 22:31N 40°42' W 074°00'3 7.0
2018-Feb-11 22:00N 40°46' W 074°00'4 7.1
2018-Feb-11 21:30N 40°42' W 073°60'1 2.8
2018-Feb-11 21:00N 40°43' W 074°01'1 2.9
2018-Feb-11 20:31N 40°42' W 074°02'1 1.7
2018-Feb-11 20:01N 40°42' W 074°01'1 1.5
2018-Feb-11 19:30N 40°43' W 074°02'1 2.7
2018-Feb-11 19:00N 40°42' W 074°00'  
Track history (hours):
 
Tides and Currents Weather Stations Pressure Air Temp Water Temp Dewpoint Dewpoint Depression Visibility Wind Speed Wind Dir Waves Ship Positions

Sam Holmes

Owner: NYCL Acquisition LLC, Brooklyn, NY. More information available from US FCC via Universal Licensing System and Coast Guard Vessel Documentation Center.

Last reported at 2018-Feb-21 18:39 UTC. Time now 2018-Feb-22 09:18 UTC.
Position N 40°40' W 074°01'.

Type: Passenger vessel. MMSI: 367659970.

Date/timePositionNaut miles runAvg speedWind from/ knotsBaromVisibWave heightAir tempDewpointWater temp
2018-Feb-21 18:39N 40°40' W 074°01'1 6.9
2018-Feb-21 18:30N 40°39' W 074°01'611.5
2018-Feb-21 18:01N 40°45' W 073°58'612.7
2018-Feb-21 17:31N 40°39' W 074°02'612.7
2018-Feb-21 17:01N 40°45' W 073°58'612.6
2018-Feb-21 16:30N 40°39' W 074°02'612.3
2018-Feb-21 16:00N 40°45' W 073°58'613.0
2018-Feb-21 15:30N 40°39' W 074°02'612.9
2018-Feb-21 15:00N 40°45' W 073°58'612.8
2018-Feb-21 14:30N 40°39' W 074°02'612.5
2018-Feb-21 14:00N 40°45' W 073°58'612.8
2018-Feb-21 13:30N 40°39' W 074°02'612.6
2018-Feb-21 13:00N 40°45' W 073°58'612.7
2018-Feb-21 12:30N 40°39' W 074°02'612.8
2018-Feb-21 12:00N 40°45' W 073°58'612.8
2018-Feb-21 11:30N 40°39' W 074°02'612.7
2018-Feb-21 11:00N 40°45' W 073°58'612.7
2018-Feb-21 10:31N 40°39' W 074°02'2 3.2
2018-Feb-21 10:00N 40°40' W 074°01'0 0.0
2018-Feb-21 09:31N 40°40' W 074°01'0 0.0
2018-Feb-19 23:05N 40°40' W 074°01'0 0.0
2018-Feb-19 23:00N 40°40' W 074°01'2 3.8
2018-Feb-19 22:30N 40°42' W 074°01'1 2.6
2018-Feb-19 22:00N 40°44' W 074°01'2 3.1
2018-Feb-19 21:30N 40°42' W 074°00'3 7.0
2018-Feb-19 21:00N 40°46' W 074°00'4 7.0
2018-Feb-19 20:30N 40°42' W 073°60'3 5.7
2018-Feb-19 20:00N 40°45' W 074°01'4 8.2
2018-Feb-19 19:30N 40°41' W 074°03'1 3.0
2018-Feb-19 19:00N 40°42' W 074°01'4 7.1
2018-Feb-19 18:30N 40°46' W 074°00'4 7.0
2018-Feb-19 18:00N 40°42' W 073°60'3 5.5
2018-Feb-19 17:30N 40°45' W 074°01'4 7.5
2018-Feb-19 17:00N 40°41' W 074°03'1 3.0
2018-Feb-19 16:30N 40°42' W 074°01'2 3.4
2018-Feb-19 16:00N 40°44' W 074°01'2 3.7
2018-Feb-19 15:30N 40°42' W 074°00'3 6.5
2018-Feb-19 14:59N 40°46' W 074°00'2 4.4
2018-Feb-19 14:30N 40°44' W 074°01'3 6.9
2018-Feb-19 14:00N 40°40' W 074°01'0 0.0
2018-Feb-19 13:30N 40°40' W 074°01'0 0.0
2018-Feb-18 22:18N 40°40' W 074°01'2 6.0
2018-Feb-18 22:00N 40°42' W 074°00'0 0.7
2018-Feb-18 21:30N 40°42' W 074°01'2 3.1
2018-Feb-18 21:00N 40°43' W 074°01'1 2.8
2018-Feb-18 20:30N 40°42' W 074°00'0 0.2
2018-Feb-18 19:59N 40°42' W 074°00'1 2.7
2018-Feb-18 19:30N 40°43' W 074°02'1 2.5
2018-Feb-18 19:00N 40°42' W 074°00'0 0.2
2018-Feb-18 18:30N 40°42' W 074°00'1 2.4
2018-Feb-18 18:00N 40°43' W 074°02'1 2.4
2018-Feb-18 17:30N 40°42' W 074°00'0 0.6
2018-Feb-18 16:59N 40°42' W 074°00'1 2.6
2018-Feb-18 16:30N 40°43' W 074°01'1 2.4
2018-Feb-18 16:00N 40°42' W 074°00'2 0.1
2018-Feb-17 22:57N 40°40' W 074°01'2 3.4
2018-Feb-17 22:30N 40°42' W 074°01'3 6.4
2018-Feb-17 22:00N 40°45' W 074°01'3 5.3
2018-Feb-17 21:29N 40°42' W 074°00'3 7.4
2018-Feb-17 21:01N 40°46' W 074°00'4 8.9
2018-Feb-17 20:31N 40°42' W 074°02'2 3.4
2018-Feb-17 20:00N 40°43' W 074°01'1 1.6
2018-Feb-17 19:30N 40°43' W 074°02'1 2.7
2018-Feb-17 19:00N 40°42' W 074°00'4 6.9
2018-Feb-17 18:30N 40°46' W 074°00'4 7.2
2018-Feb-17 18:00N 40°42' W 073°60'2 4.9
2018-Feb-17 17:30N 40°45' W 074°01'4 7.0
2018-Feb-17 17:00N 40°41' W 074°03'2 3.0
2018-Feb-17 16:30N 40°42' W 074°01'2 3.7
2018-Feb-17 16:01N 40°44' W 074°01'2 3.8
2018-Feb-17 15:30N 40°42' W 074°00'3 7.0
2018-Feb-17 15:00N 40°46' W 074°00'0 0.4
2018-Feb-17 14:31N 40°46' W 074°00'510.9
2018-Feb-17 14:01N 40°40' W 074°01'0 0.0
2018-Feb-17 13:31N 40°40' W 074°01'0 0.0
2018-Feb-16 22:54N 40°40' W 074°01'2 4.0
2018-Feb-16 22:31N 40°42' W 074°01'2 4.8
2018-Feb-16 22:00N 40°44' W 074°01'2 4.2
2018-Feb-16 21:30N 40°42' W 074°00'3 4.9
2018-Feb-16 21:00N 40°45' W 074°01'3 7.0
2018-Feb-16 20:30N 40°42' W 074°02'1 2.2
2018-Feb-16 20:00N 40°42' W 074°01'1 2.5
2018-Feb-16 19:30N 40°43' W 074°01'2 3.2
2018-Feb-16 19:00N 40°42' W 074°00'3 6.4
2018-Feb-16 18:28N 40°46' W 074°00'4 7.7
2018-Feb-16 18:00N 40°42' W 073°60'3 5.8
2018-Feb-16 17:30N 40°45' W 074°01'4 7.7
2018-Feb-16 17:00N 40°41' W 074°02'2 3.3
2018-Feb-16 16:31N 40°43' W 074°01'1 1.1
2018-Feb-16 16:00N 40°43' W 074°01'1 2.8
2018-Feb-16 15:30N 40°42' W 074°00'3 6.8
2018-Feb-16 15:00N 40°46' W 074°00'0 0.0
2018-Feb-16 14:30N 40°46' W 074°00'5 0.4
2018-Feb-15 23:03N 40°40' W 074°01'0 0.0
2018-Feb-15 23:00N 40°40' W 074°01'2 4.1
2018-Feb-15 22:30N 40°42' W 074°00'3 6.9
2018-Feb-15 22:00N 40°46' W 074°00'4 7.1
2018-Feb-15 21:30N 40°42' W 073°60'2 4.9
2018-Feb-15 21:00N 40°44' W 074°01'3 6.6
2018-Feb-15 20:31N 40°41' W 074°02'1 2.8
2018-Feb-15 20:00N 40°42' W 074°01'2 4.2
2018-Feb-15 19:30N 40°44' W 074°01'2 4.3
2018-Feb-15 19:00N 40°42' W 074°00'3 6.9
2018-Feb-15 18:30N 40°46' W 074°00'4 7.2
2018-Feb-15 18:00N 40°42' W 073°60'3 5.0
2018-Feb-15 17:31N 40°45' W 074°01'3 6.2
2018-Feb-15 17:00N 40°42' W 074°02'1 2.2
2018-Feb-15 16:30N 40°42' W 074°01'3 6.2
2018-Feb-15 16:01N 40°45' W 074°01'3 6.1
2018-Feb-15 15:30N 40°42' W 074°00'3 6.7
2018-Feb-15 14:59N 40°46' W 074°00'0 0.2
2018-Feb-15 14:30N 40°46' W 074°00'510.9
2018-Feb-15 14:00N 40°40' W 074°01'0 0.0
2018-Feb-15 13:30N 40°40' W 074°01'0 0.0
2018-Feb-15 01:32N 40°40' W 074°01'0 0.0
2018-Feb-15 01:30N 40°40' W 074°01'5 9.2
2018-Feb-15 01:00N 40°45' W 073°58'612.8
2018-Feb-15 00:31N 40°39' W 074°02'612.5
2018-Feb-15 00:00N 40°45' W 073°58'612.6
2018-Feb-14 23:30N 40°39' W 074°02'612.6
2018-Feb-14 23:00N 40°45' W 073°58'612.9
2018-Feb-14 22:30N 40°39' W 074°02'612.6
2018-Feb-14 22:00N 40°45' W 073°58'612.7
2018-Feb-14 21:30N 40°39' W 074°02'612.6
2018-Feb-14 21:00N 40°45' W 073°58'612.8
2018-Feb-14 20:30N 40°39' W 074°02'612.6
2018-Feb-14 20:00N 40°45' W 073°58'612.7
2018-Feb-14 19:30N 40°39' W 074°02'612.4
2018-Feb-14 19:00N 40°45' W 073°58'612.8
2018-Feb-14 18:30N 40°39' W 074°02'2 0.1
2018-Feb-14 01:31N 40°40' W 074°01'0 0.0
2018-Feb-14 01:31N 40°40' W 074°01'5 9.4
2018-Feb-14 01:00N 40°45' W 073°58'612.7
2018-Feb-14 00:30N 40°39' W 074°02'612.4
2018-Feb-14 00:00N 40°45' W 073°58'613.0
2018-Feb-13 23:30N 40°39' W 074°02'612.6
2018-Feb-13 23:00N 40°45' W 073°58'612.7
2018-Feb-13 22:30N 40°39' W 074°02'612.4
2018-Feb-13 22:00N 40°45' W 073°58'612.9
2018-Feb-13 21:30N 40°39' W 074°02'612.6
2018-Feb-13 21:00N 40°45' W 073°58'612.7
2018-Feb-13 20:30N 40°39' W 074°02'612.7
2018-Feb-13 20:00N 40°45' W 073°58'612.6
2018-Feb-13 19:30N 40°39' W 074°02'612.8
2018-Feb-13 19:00N 40°45' W 073°58'612.7
2018-Feb-13 18:30N 40°39' W 074°02'612.7
2018-Feb-13 18:01N 40°45' W 073°58'612.7
2018-Feb-13 17:31N 40°39' W 074°02'612.5
2018-Feb-13 17:00N 40°45' W 073°58'612.9
2018-Feb-13 16:31N 40°39' W 074°02'612.7
2018-Feb-13 16:01N 40°45' W 073°58'612.7
2018-Feb-13 15:30N 40°39' W 074°02'612.4
2018-Feb-13 15:00N 40°45' W 073°58'612.5
2018-Feb-13 14:31N 40°39' W 074°02'612.1
2018-Feb-13 14:00N 40°45' W 073°58'612.6
2018-Feb-13 13:30N 40°39' W 074°02'612.8
2018-Feb-13 13:00N 40°45' W 073°58'612.6
2018-Feb-13 12:30N 40°39' W 074°02'612.5
2018-Feb-13 12:00N 40°45' W 073°58'612.9
2018-Feb-13 11:31N 40°39' W 074°02'1 2.8
2018-Feb-13 11:00N 40°40' W 074°01'0 0.0
2018-Feb-13 01:34N 40°40' W 074°01'0 0.0
2018-Feb-13 01:30N 40°40' W 074°01'5 9.5
2018-Feb-13 01:00N 40°45' W 073°58'612.6
2018-Feb-13 00:31N 40°39' W 074°02'612.3
2018-Feb-13 00:00N 40°45' W 073°58'613.1
2018-Feb-12 23:30N 40°39' W 074°02'612.6
2018-Feb-12 23:00N 40°45' W 073°58'613.2
2018-Feb-12 22:30N 40°39' W 074°02'612.7
2018-Feb-12 22:00N 40°45' W 073°58'612.7
2018-Feb-12 21:30N 40°39' W 074°02'612.7
2018-Feb-12 21:00N 40°45' W 073°58'613.1
2018-Feb-12 20:30N 40°39' W 074°02'612.7
2018-Feb-12 20:00N 40°45' W 073°58'612.6
2018-Feb-12 19:30N 40°39' W 074°02'612.6
2018-Feb-12 19:00N 40°45' W 073°58'612.1
2018-Feb-12 18:29N 40°39' W 074°02'2 3.5
2018-Feb-12 18:01N 40°40' W 074°01'0 0.0
2018-Feb-11 22:48N 40°40' W 074°01'2 7.0
2018-Feb-11 22:31N 40°42' W 074°00'3 7.0
2018-Feb-11 22:00N 40°46' W 074°00'4 7.1
2018-Feb-11 21:30N 40°42' W 073°60'1 2.8
2018-Feb-11 21:00N 40°43' W 074°01'1 2.9
2018-Feb-11 20:31N 40°42' W 074°02'1 1.7
2018-Feb-11 20:01N 40°42' W 074°01'1 1.5
2018-Feb-11 19:30N 40°43' W 074°02'1 2.7
2018-Feb-11 19:00N 40°42' W 074°00'  

Dump ship's entire track history